createdAt,value
2018-09-24T00:02:16.602Z,95.04
2018-09-24T00:04:45.082Z,94.70
2018-09-24T00:07:13.591Z,94.56
2018-09-24T00:09:42.071Z,94.45
2018-09-24T00:12:10.562Z,94.53
2018-09-24T00:14:39.887Z,94.68
2018-09-24T00:17:09.166Z,95.18
2018-09-24T00:19:37.692Z,94.50
2018-09-24T00:22:06.497Z,94.61
2018-09-24T00:24:34.976Z,95.03
2018-09-24T00:27:03.506Z,95.15
2018-09-24T00:29:32.049Z,94.79
2018-09-24T00:32:00.553Z,94.74
2018-09-24T00:34:29.794Z,94.83
2018-09-24T00:36:58.286Z,94.68
2018-09-24T00:39:26.785Z,94.62
2018-09-24T00:41:55.341Z,94.92
2018-09-24T00:44:24.945Z,94.77
2018-09-24T00:46:53.479Z,94.53
2018-09-24T00:49:21.994Z,94.85
2018-09-24T00:51:51.117Z,94.90
2018-09-24T00:54:19.713Z,95.22
2018-09-24T00:56:48.750Z,94.95
2018-09-24T00:59:17.238Z,94.99
2018-09-24T01:01:46.314Z,95.19
2018-09-24T01:04:14.851Z,94.73
2018-09-24T01:06:44.175Z,94.38
2018-09-24T01:09:13.080Z,94.82
2018-09-24T01:11:42.193Z,94.26
2018-09-24T01:14:10.850Z,94.48
2018-09-24T01:16:39.622Z,94.13
2018-09-24T01:19:08.201Z,94.19
2018-09-24T01:21:36.994Z,94.13
2018-09-24T01:24:05.553Z,94.22
2018-09-24T01:26:34.040Z,94.53
2018-09-24T01:29:02.550Z,94.65
2018-09-24T01:31:31.113Z,94.61
2018-09-24T01:33:59.673Z,95.00
2018-09-24T01:36:28.203Z,94.61
2018-09-24T01:38:56.774Z,94.46
2018-09-24T01:41:25.289Z,94.50
2018-09-24T01:43:53.889Z,94.56
2018-09-24T01:46:22.390Z,94.64
2018-09-24T01:48:57.515Z,94.28
2018-09-24T01:51:37.994Z,94.28
2018-09-24T01:54:07.449Z,94.71
2018-09-24T01:56:36.141Z,94.61
2018-09-24T01:59:04.719Z,94.26
2018-09-24T02:01:33.430Z,94.45
2018-09-24T02:04:01.937Z,94.36
2018-09-24T02:06:30.440Z,94.49
2018-09-24T02:08:59.061Z,94.80
2018-09-24T02:11:28.122Z,94.89
2018-09-24T02:13:57.150Z,94.85
2018-09-24T02:16:25.795Z,94.85
2018-09-24T02:19:00.054Z,94.31
2018-09-24T02:21:28.757Z,94.47
2018-09-24T02:24:02.929Z,94.48
2018-09-24T02:26:31.482Z,94.93
2018-09-24T02:29:02.070Z,94.07
2018-09-24T02:31:35.199Z,93.20
2018-09-24T02:34:04.498Z,92.50
2018-09-24T02:36:33.039Z,92.24
2018-09-24T02:39:01.583Z,91.54
2018-09-24T02:41:30.070Z,91.48
2018-09-24T02:43:59.037Z,92.40
2018-09-24T02:46:27.678Z,91.98
2018-09-24T02:49:01.895Z,92.47
2018-09-24T02:51:31.301Z,92.66
2018-09-24T02:53:59.853Z,92.83
2018-09-24T02:56:28.345Z,93.12
2018-09-24T02:58:57.578Z,93.23
2018-09-24T03:01:32.023Z,93.23
2018-09-24T03:04:01.208Z,93.42
2018-09-24T03:06:35.108Z,93.38
2018-09-24T03:09:05.001Z,93.51
2018-09-24T03:11:33.846Z,93.56
2018-09-24T03:14:02.329Z,93.22
2018-09-24T03:16:30.857Z,93.46
2018-09-24T03:19:00.897Z,93.49
2018-09-24T03:21:30.168Z,93.48
2018-09-24T03:23:59.579Z,93.49
2018-09-24T03:26:29.127Z,93.51
2018-09-24T03:28:57.707Z,93.28
2018-09-24T03:31:26.901Z,94.04
2018-09-24T03:33:55.493Z,94.05
2018-09-24T03:36:24.039Z,93.32
2018-09-24T03:38:53.063Z,94.01
2018-09-24T03:41:21.780Z,93.67
2018-09-24T03:43:50.430Z,93.19
2018-09-24T03:46:18.983Z,93.20
2018-09-24T03:48:48.223Z,93.49
2018-09-24T03:51:16.876Z,93.67
2018-09-24T03:53:46.043Z,94.06
2018-09-24T03:56:14.583Z,94.05
2018-09-24T03:58:43.123Z,94.03
2018-09-24T04:01:11.843Z,94.13
2018-09-24T04:03:40.425Z,94.06
2018-09-24T04:06:14.343Z,94.43
2018-09-24T04:08:48.172Z,94.10
2018-09-24T04:11:22.301Z,94.44
2018-09-24T04:13:56.114Z,93.95
2018-09-24T04:16:29.833Z,94.29
2018-09-24T04:19:07.254Z,93.95
2018-09-24T04:21:41.065Z,94.49
2018-09-24T04:24:14.955Z,94.26
2018-09-24T04:26:48.703Z,94.39
2018-09-24T04:36:34.941Z,94.08
2018-09-24T04:39:08.801Z,94.30
2018-09-24T04:41:43.215Z,94.18
2018-09-24T04:44:17.620Z,93.74
2018-09-24T04:46:51.752Z,93.69
2018-09-24T04:49:25.576Z,94.11
2018-09-24T04:51:59.362Z,94.12
2018-09-24T04:54:34.335Z,93.91
2018-09-24T04:57:07.961Z,94.31
2018-09-24T04:59:41.768Z,94.39
2018-09-24T05:02:16.138Z,95.01
2018-09-24T05:04:49.886Z,94.91
2018-09-24T05:07:23.737Z,95.10
2018-09-24T05:09:58.047Z,95.20
2018-09-24T05:12:31.734Z,94.77
2018-09-24T05:15:05.509Z,94.85
2018-09-24T05:17:40.063Z,95.36
2018-09-24T05:20:14.590Z,95.08
2018-09-24T05:22:48.461Z,95.13
2018-09-24T05:25:22.329Z,94.86
2018-09-24T05:27:56.169Z,95.12
2018-09-24T05:30:29.912Z,94.94
2018-09-24T05:33:03.899Z,94.98
2018-09-24T05:35:38.416Z,95.42
2018-09-24T05:38:12.322Z,95.45
2018-09-24T05:40:46.074Z,95.62
2018-09-24T05:43:20.009Z,95.44
2018-09-24T05:45:53.891Z,95.39
2018-09-24T05:48:28.439Z,95.39
2018-09-24T05:51:02.844Z,95.23
2018-09-24T05:53:36.466Z,95.38
2018-09-24T05:56:10.175Z,95.09
2018-09-24T05:58:43.952Z,95.21
2018-09-24T06:01:17.816Z,95.36
2018-09-24T06:03:51.780Z,94.81
2018-09-24T06:06:25.743Z,94.85
2018-09-24T06:08:59.655Z,94.84
2018-09-24T06:11:34.050Z,94.66
2018-09-24T06:14:07.789Z,94.81
2018-09-24T06:16:41.535Z,94.80
2018-09-24T06:19:16.270Z,95.00
2018-09-24T06:21:50.176Z,94.92
2018-09-24T06:24:23.998Z,94.89
2018-09-24T06:26:58.308Z,94.70
2018-09-24T06:29:32.698Z,94.72
2018-09-24T06:32:07.043Z,95.10
2018-09-24T06:34:40.753Z,94.84
2018-09-24T06:37:14.461Z,94.28
2018-09-24T06:39:48.234Z,94.58
2018-09-24T06:42:22.117Z,94.27
2018-09-24T06:44:56.612Z,93.21
2018-09-24T06:47:31.074Z,93.87
2018-09-24T06:50:05.019Z,91.80
2018-09-24T06:52:39.423Z,91.49
2018-09-24T06:55:13.925Z,89.96
2018-09-24T06:57:47.514Z,89.35
2018-09-24T07:00:21.597Z,89.22
2018-09-24T07:02:55.312Z,89.42
2018-09-24T07:05:29.168Z,88.87
2018-09-24T07:08:02.950Z,89.20
2018-09-24T07:10:37.045Z,89.83
2018-09-24T07:13:10.854Z,90.07
2018-09-24T07:15:44.631Z,90.80
2018-09-24T07:18:18.455Z,90.05
2018-09-24T07:20:52.131Z,88.32
2018-09-24T07:23:25.829Z,88.07
2018-09-24T07:25:59.558Z,89.86
2018-09-24T07:28:34.691Z,89.96
2018-09-24T07:31:08.414Z,90.23
2018-09-24T07:33:42.217Z,89.93
2018-09-24T07:36:15.914Z,90.25
2018-09-24T07:38:49.694Z,88.86
2018-09-24T07:41:24.279Z,89.69
2018-09-24T07:43:58.183Z,87.46
2018-09-24T07:46:32.111Z,88.08
2018-09-24T07:49:06.334Z,87.96
2018-09-24T07:51:40.125Z,87.55
2018-09-24T07:54:14.221Z,86.31
2018-09-24T07:56:48.124Z,86.66
2018-09-24T07:59:22.738Z,83.96
2018-09-24T08:01:57.318Z,84.18
2018-09-24T08:04:31.486Z,81.99
2018-09-24T08:07:05.433Z,82.54
2018-09-24T08:09:39.298Z,83.20
2018-09-24T08:12:13.009Z,82.91
2018-09-24T08:14:47.209Z,82.35
2018-09-24T08:17:21.134Z,79.53
2018-09-24T08:19:54.891Z,79.69
2018-09-24T08:22:28.862Z,81.28
2018-09-24T08:25:03.756Z,80.03
2018-09-24T08:27:37.642Z,79.08
2018-09-24T08:30:11.789Z,77.85
2018-09-24T08:32:45.731Z,78.37
2018-09-24T08:35:20.302Z,78.30
2018-09-24T08:37:54.049Z,78.03
2018-09-24T08:40:27.951Z,78.58
2018-09-24T08:43:02.414Z,79.81
2018-09-24T08:45:36.280Z,78.62
2018-09-24T08:48:11.043Z,80.16
2018-09-24T08:50:44.932Z,76.70
2018-09-24T08:53:19.074Z,76.56
2018-09-24T08:55:52.824Z,76.79
2018-09-24T08:58:26.796Z,77.69
2018-09-24T09:01:00.565Z,75.22
2018-09-24T09:03:34.288Z,75.70
2018-09-24T09:06:08.041Z,75.00
2018-09-24T09:08:42.603Z,74.63
2018-09-24T09:11:16.194Z,75.27
2018-09-24T09:13:49.967Z,72.00
2018-09-24T09:16:23.782Z,73.09
2018-09-24T09:18:58.222Z,72.62
2018-09-24T09:21:32.341Z,69.12
2018-09-24T09:24:06.072Z,68.18
2018-09-24T09:26:39.999Z,67.62
2018-09-24T09:29:13.757Z,67.49
2018-09-24T09:31:48.482Z,68.61
2018-09-24T09:34:22.200Z,67.09
2018-09-24T09:36:57.870Z,67.24
2018-09-24T09:39:31.502Z,67.25
2018-09-24T09:42:05.722Z,65.71
2018-09-24T09:44:39.567Z,67.52
2018-09-24T09:47:13.414Z,68.55
2018-09-24T09:49:47.318Z,65.55
2018-09-24T09:52:21.051Z,65.33
2018-09-24T09:54:54.758Z,64.93
2018-09-24T09:57:28.529Z,65.63
2018-09-24T10:00:02.275Z,65.65
2018-09-24T10:02:36.248Z,63.61
2018-09-24T10:05:10.672Z,61.96
2018-09-24T10:07:45.171Z,61.18
2018-09-24T10:10:19.403Z,61.43
2018-09-24T10:12:54.226Z,60.14
2018-09-24T10:15:28.160Z,59.90
2018-09-24T10:18:01.966Z,59.56
2018-09-24T10:20:35.879Z,60.19
2018-09-24T10:23:10.287Z,58.58
2018-09-24T10:25:44.023Z,65.44
2018-09-24T10:28:18.127Z,68.02
2018-09-24T10:30:52.270Z,71.35
2018-09-24T10:33:27.791Z,75.75
2018-09-24T10:36:01.719Z,75.70
2018-09-24T10:38:35.622Z,77.80
2018-09-24T10:41:09.884Z,81.68
2018-09-24T10:43:44.574Z,86.12
2018-09-24T10:46:18.391Z,88.36
2018-09-24T10:48:52.115Z,89.11
2018-09-24T10:51:25.921Z,87.61
2018-09-24T10:53:59.771Z,89.20
2018-09-24T10:56:33.572Z,88.47
2018-09-24T10:59:08.022Z,89.40
2018-09-24T11:01:41.764Z,90.09
2018-09-24T11:04:15.455Z,90.38
2018-09-24T11:06:49.174Z,90.41
2018-09-24T11:09:23.352Z,89.21
2018-09-24T11:11:57.197Z,88.14
2018-09-24T11:14:31.598Z,85.74
2018-09-24T11:17:05.914Z,83.44
2018-09-24T11:19:39.575Z,80.45
2018-09-24T11:22:14.035Z,83.40
2018-09-24T11:24:48.235Z,84.67
2018-09-24T11:27:22.544Z,84.34
2018-09-24T11:29:56.288Z,87.28
2018-09-24T11:32:30.147Z,87.51
2018-09-24T11:35:03.998Z,86.65
2018-09-24T11:37:38.115Z,86.06
2018-09-24T11:40:11.767Z,86.79
2018-09-24T11:42:45.579Z,87.27
2018-09-24T11:45:19.327Z,86.99
2018-09-24T11:47:52.993Z,83.38
2018-09-24T11:50:26.903Z,81.03
2018-09-24T11:53:00.972Z,83.15
2018-09-24T11:55:34.804Z,82.69
2018-09-24T11:58:09.146Z,76.59
2018-09-24T12:00:43.176Z,71.76
2018-09-24T12:03:16.937Z,72.15
2018-09-24T12:05:51.300Z,73.51
2018-09-24T12:08:25.157Z,72.49
2018-09-24T12:10:59.856Z,70.54
2018-09-24T12:13:33.579Z,69.62
2018-09-24T12:16:07.614Z,69.94
2018-09-24T12:18:41.297Z,72.50
2018-09-24T12:21:15.005Z,71.02
2018-09-24T12:23:48.652Z,72.11
2018-09-24T12:26:22.956Z,70.38
2018-09-24T12:28:56.718Z,73.74
2018-09-24T12:31:30.467Z,71.74
2018-09-24T12:34:04.170Z,70.90
2018-09-24T12:36:38.085Z,70.45
2018-09-24T12:39:13.179Z,69.37
2018-09-24T12:41:46.970Z,68.74
2018-09-24T12:44:21.023Z,67.62
2018-09-24T12:46:54.851Z,68.37
2018-09-24T12:49:28.643Z,67.66
2018-09-24T12:52:02.454Z,66.88
2018-09-24T12:54:36.052Z,63.52
2018-09-24T12:57:09.779Z,63.92
2018-09-24T12:59:43.587Z,63.87
2018-09-24T13:02:17.385Z,64.48
2018-09-24T13:04:51.175Z,66.81
2018-09-24T13:07:24.991Z,67.15
2018-09-24T13:09:58.798Z,67.97
2018-09-24T13:12:32.564Z,69.90
2018-09-24T13:15:06.300Z,68.17
2018-09-24T13:17:40.144Z,66.15
2018-09-24T13:20:13.795Z,67.41
2018-09-24T13:22:47.550Z,63.97
2018-09-24T13:25:21.457Z,61.31
2018-09-24T13:27:55.367Z,60.19
2018-09-24T13:30:29.130Z,62.03
2018-09-24T13:33:02.875Z,64.18
2018-09-24T13:35:36.796Z,70.69
2018-09-24T13:38:10.450Z,71.53
2018-09-24T13:40:44.194Z,71.50
2018-09-24T13:43:18.375Z,72.13
2018-09-24T13:45:52.195Z,69.32
2018-09-24T13:48:25.952Z,71.24
2018-09-24T13:50:59.682Z,69.37
2018-09-24T13:53:33.394Z,68.64
2018-09-24T13:56:07.075Z,69.11
2018-09-24T13:58:40.822Z,67.23
2018-09-24T14:01:14.632Z,68.14
2018-09-24T14:03:48.383Z,67.48
2018-09-24T14:06:22.096Z,67.99
2018-09-24T14:08:55.884Z,65.09
2018-09-24T14:11:29.887Z,65.54
2018-09-24T14:14:03.788Z,64.91
2018-09-24T14:16:37.616Z,65.04
2018-09-24T14:19:11.655Z,66.00
2018-09-24T14:21:45.287Z,65.53
2018-09-24T14:24:19.610Z,66.28
2018-09-24T14:26:53.522Z,65.22
2018-09-24T14:29:27.466Z,66.49
2018-09-24T14:32:01.271Z,63.54
2018-09-24T14:34:35.146Z,63.08
2018-09-24T14:37:08.698Z,63.64
2018-09-24T14:39:42.535Z,62.61
2018-09-24T14:42:16.436Z,62.49
2018-09-24T14:44:50.166Z,63.71
2018-09-24T14:47:23.880Z,61.37
2018-09-24T14:49:57.818Z,60.46
2018-09-24T14:52:32.695Z,60.41
2018-09-24T14:55:06.525Z,60.96
2018-09-24T14:57:40.388Z,62.02
2018-09-24T15:00:14.006Z,63.36
2018-09-24T15:02:47.868Z,62.54
2018-09-24T15:05:21.733Z,61.30
2018-09-24T15:07:55.374Z,59.57
2018-09-24T15:10:29.266Z,60.48
2018-09-24T15:13:03.014Z,59.03
2018-09-24T15:15:36.714Z,59.98
2018-09-24T15:18:10.576Z,56.69
2018-09-24T15:20:44.259Z,56.66
2018-09-24T15:23:18.080Z,54.99
2018-09-24T15:25:51.812Z,55.58
2018-09-24T15:28:25.711Z,56.25
2018-09-24T15:30:59.556Z,54.42
2018-09-24T15:33:33.196Z,56.24
2018-09-24T15:36:07.151Z,59.19
2018-09-24T15:38:40.927Z,58.60
2018-09-24T15:41:14.943Z,59.89
2018-09-24T15:43:48.904Z,59.48
2018-09-24T15:46:22.742Z,59.64
2018-09-24T15:48:56.597Z,60.03
2018-09-24T15:51:30.491Z,62.48
2018-09-24T15:54:04.392Z,62.86
2018-09-24T15:56:38.275Z,62.64
2018-09-24T15:59:12.521Z,63.78
2018-09-24T16:01:46.288Z,64.88
2018-09-24T16:04:20.051Z,64.54
2018-09-24T16:06:54.254Z,64.23
2018-09-24T16:09:28.131Z,64.16
2018-09-24T16:12:01.989Z,65.35
2018-09-24T16:14:35.852Z,68.67
2018-09-24T16:17:09.659Z,72.96
2018-09-24T16:19:43.375Z,78.42
2018-09-24T16:22:17.159Z,80.13
2018-09-24T16:24:50.923Z,79.35
2018-09-24T16:27:24.736Z,79.88
2018-09-24T16:29:58.543Z,80.03
2018-09-24T16:32:33.349Z,80.83
2018-09-24T16:35:06.959Z,80.85
2018-09-24T16:37:40.895Z,80.88
2018-09-24T16:40:14.726Z,82.30
2018-09-24T16:42:48.534Z,83.19
2018-09-24T16:45:22.202Z,83.68
2018-09-24T16:47:56.099Z,82.44
2018-09-24T16:50:30.008Z,82.15
2018-09-24T16:53:03.955Z,82.84
2018-09-24T16:55:37.863Z,81.87
2018-09-24T16:58:11.737Z,83.17
2018-09-24T17:00:45.690Z,82.22
2018-09-24T17:03:19.681Z,83.13
2018-09-24T17:05:53.530Z,83.03
2018-09-24T17:08:27.267Z,83.65
2018-09-24T17:11:01.059Z,84.33
2018-09-24T17:13:34.874Z,84.59
2018-09-24T17:16:08.549Z,85.06
2018-09-24T17:18:42.511Z,86.03
2018-09-24T17:21:16.320Z,85.77
2018-09-24T17:23:50.165Z,85.89
2018-09-24T17:26:24.091Z,86.23
2018-09-24T17:28:57.969Z,86.12
2018-09-24T17:31:31.803Z,86.72
2018-09-24T17:34:05.580Z,87.38
2018-09-24T17:36:39.418Z,87.16
2018-09-24T17:39:14.123Z,87.45
2018-09-24T17:41:47.855Z,87.99
2018-09-24T17:44:21.624Z,88.22
2018-09-24T17:46:55.498Z,88.50
2018-09-24T17:49:29.388Z,88.32
2018-09-24T17:52:03.349Z,88.60
2018-09-24T17:54:37.052Z,88.35
2018-09-24T17:57:10.842Z,87.62
2018-09-24T17:59:44.712Z,87.10
2018-09-24T18:02:18.645Z,86.65
2018-09-24T18:04:52.347Z,85.85
2018-09-24T18:07:26.246Z,85.71
2018-09-24T18:10:00.162Z,85.14
2018-09-24T18:12:34.262Z,84.94
2018-09-24T18:15:08.147Z,84.54
2018-09-24T18:17:42.694Z,83.97
2018-09-24T18:20:17.343Z,83.81
2018-09-24T18:22:55.742Z,83.47
2018-09-24T18:25:29.726Z,83.48
2018-09-24T18:28:03.591Z,83.74
2018-09-24T18:30:37.515Z,83.79
2018-09-24T18:33:11.711Z,83.29
2018-09-24T18:35:45.480Z,84.27
2018-09-24T18:38:19.195Z,83.76
2018-09-24T18:40:53.256Z,83.71
2018-09-24T18:43:27.394Z,83.90
2018-09-24T18:46:01.326Z,83.09
2018-09-24T18:48:35.117Z,83.35
2018-09-24T18:51:09.111Z,83.94
2018-09-24T18:53:43.160Z,83.56
2018-09-24T18:56:17.133Z,84.01
2018-09-24T18:58:50.995Z,84.37
2018-09-24T19:01:25.069Z,84.66
2018-09-24T19:03:59.745Z,85.48
2018-09-24T19:06:33.790Z,85.28
2018-09-24T19:09:07.847Z,85.57
2018-09-24T19:11:42.107Z,85.77
2018-09-24T19:14:17.286Z,86.44
2018-09-24T19:16:52.092Z,86.37
2018-09-24T19:19:26.006Z,87.86
2018-09-24T19:21:59.912Z,89.07
2018-09-24T19:24:33.835Z,89.87
2018-09-24T19:27:07.655Z,90.01
2018-09-24T19:29:41.758Z,90.47
2018-09-24T19:32:15.508Z,90.79
2018-09-24T19:34:49.334Z,91.09
2018-09-24T19:37:23.238Z,91.54
2018-09-24T19:39:57.019Z,91.17
2018-09-24T19:42:30.864Z,91.13
2018-09-24T19:45:05.341Z,91.54
2018-09-24T19:47:39.202Z,91.89
2018-09-24T19:50:13.506Z,91.64
2018-09-24T19:52:47.170Z,91.54
2018-09-24T19:55:21.152Z,91.54
2018-09-24T19:57:54.962Z,91.63
2018-09-24T20:00:29.135Z,91.37
2018-09-24T20:03:02.836Z,91.59
2018-09-24T20:05:36.668Z,91.18
2018-09-24T20:08:10.615Z,91.31
2018-09-24T20:10:44.251Z,91.56
2018-09-24T20:13:18.198Z,91.50
2018-09-24T20:15:52.707Z,91.21
2018-09-24T20:18:26.497Z,91.41
2018-09-24T20:21:01.569Z,91.27
2018-09-24T20:23:35.290Z,92.11
2018-09-24T20:26:08.924Z,92.19
2018-09-24T20:28:42.769Z,92.62
2018-09-24T20:31:17.125Z,92.94
2018-09-24T20:33:51.974Z,92.96
2018-09-24T20:36:25.854Z,93.32
2018-09-24T20:38:59.726Z,93.18
2018-09-24T20:41:33.638Z,93.30
2018-09-24T20:44:07.770Z,92.24
2018-09-24T20:46:41.822Z,92.12
2018-09-24T20:49:16.480Z,92.19
2018-09-24T20:51:50.393Z,91.77
2018-09-24T20:54:24.214Z,91.87
2018-09-24T20:56:58.003Z,91.89
2018-09-24T20:59:32.306Z,91.92
2018-09-24T21:02:06.071Z,91.90
2018-09-24T21:04:39.981Z,92.18
2018-09-24T21:07:13.818Z,92.77
2018-09-24T21:09:47.681Z,92.82
2018-09-24T21:12:21.602Z,92.81
2018-09-24T21:14:55.617Z,93.12
2018-09-24T21:17:30.519Z,92.80
2018-09-24T21:20:04.367Z,92.63
2018-09-24T21:22:38.094Z,91.95
2018-09-24T21:25:12.004Z,91.93
2018-09-24T21:27:45.635Z,91.87
2018-09-24T21:30:19.430Z,90.85
2018-09-24T21:32:53.234Z,90.93
2018-09-24T21:35:26.996Z,90.88
2018-09-24T21:38:00.734Z,90.40
2018-09-24T21:40:34.541Z,90.94
2018-09-24T21:43:08.378Z,91.44
2018-09-24T21:45:42.898Z,91.76
2018-09-24T21:48:17.588Z,92.18
2018-09-24T21:50:51.278Z,92.25
2018-09-24T21:53:25.006Z,91.76
2018-09-24T21:55:58.918Z,91.88
2018-09-24T21:58:32.863Z,91.75
2018-09-24T22:01:06.811Z,91.91
2018-09-24T22:03:40.548Z,91.81
2018-09-24T22:06:14.362Z,91.85
2018-09-24T22:08:47.969Z,91.68
2018-09-24T22:11:22.207Z,90.99
2018-09-24T22:13:56.635Z,91.16
2018-09-24T22:16:30.367Z,91.26
2018-09-24T22:19:04.246Z,91.44
2018-09-24T22:21:38.050Z,91.00
2018-09-24T22:24:11.980Z,91.24
2018-09-24T22:26:45.810Z,90.80
2018-09-24T22:29:19.514Z,90.42
2018-09-24T22:31:53.438Z,91.35
2018-09-24T22:34:27.170Z,91.88
2018-09-24T22:37:01.015Z,91.37
2018-09-24T22:39:34.691Z,91.30
2018-09-24T22:42:08.501Z,91.72
2018-09-24T22:44:43.382Z,91.33
2018-09-24T22:47:17.177Z,91.59
2018-09-24T22:49:50.997Z,91.87
2018-09-24T22:52:24.680Z,91.91
2018-09-24T22:54:58.631Z,92.39
2018-09-24T22:57:32.335Z,92.48
2018-09-24T23:00:06.118Z,92.90
2018-09-24T23:02:39.829Z,92.99
2018-09-24T23:05:13.582Z,93.01
2018-09-24T23:07:47.522Z,93.04
2018-09-24T23:10:21.323Z,93.38
2018-09-24T23:12:55.077Z,92.91
2018-09-24T23:15:29.374Z,92.49
2018-09-24T23:18:03.068Z,92.74
2018-09-24T23:20:36.843Z,93.36
2018-09-24T23:23:10.698Z,92.88
2018-09-24T23:25:44.675Z,92.94
2018-09-24T23:28:18.604Z,92.87
2018-09-24T23:30:52.336Z,92.94
2018-09-24T23:33:26.095Z,92.48
2018-09-24T23:36:00.074Z,92.26
2018-09-24T23:38:33.763Z,92.80
2018-09-24T23:41:08.524Z,92.46
2018-09-24T23:43:42.334Z,92.47
2018-09-24T23:46:16.260Z,92.71
2018-09-24T23:48:50.036Z,93.09
2018-09-24T23:51:24.274Z,93.18
2018-09-24T23:53:58.194Z,93.27
2018-09-24T23:56:31.884Z,93.22
2018-09-24T23:59:05.716Z,92.96
